Terminal Aerodrome Forecast
Issued by NWS Memphis, TN

Home | Current Version | Previous Version | Text Only | Print | Product List | Glossary On
Versions: 1 2 3 4 5 6 7 8 9 10 11 12 13 14 15 16 17 18 19 20 21 22 23 24 25 26 27 28
000
FTUS44 KMEG 080525
TAFJBR
TAF
KJBR 080525Z 0806/0906 19006KT P6SM VCTS BKN030CB OVC100
      TEMPO 0806/0808 5SM TSRA OVC030CB
     FM080900 22008G15KT P6SM BKN250
     FM081800 22015G22KT P6SM OVC050
     FM090000 23012KT P6SM OVC100=

USA.gov is the U.S. government's official web portal to all federal, state and local government web resources and services.